Time;durP1;ratioP1;P1;durP2;ratioP2;P2;SDS_P1;SDS_P2;PMS_P1;PMS_P2;Temp;Humidity;BMP_temperature;BMP_pressure;BME280_temperature;BME280_humidity;BME280_pressure;Samples;Min_cycle;Max_cycle;Signal;HPM_P1;HPM_P2
2021/06/09 00:02:14;;;;;;;0.00;0.00;;;;;;;20.09;42.11;101767.88;5070329;28;20036;-31
2021/06/09 00:04:40;;;;;;;0.33;0.27;;;;;;;20.13;42.14;101766.97;5062404;28;20402;-31
2021/06/09 00:07:07;;;;;;;0.35;0.10;;;;;;;20.08;42.16;101766.13;5062621;28;20036;-31
2021/06/09 00:09:33;;;;;;;0.00;0.00;;;;;;;20.08;42.35;101771.44;5054773;28;20090;-32
2021/06/09 00:11:59;;;;;;;0.10;0.10;;;;;;;20.16;42.04;101766.94;5062686;28;20093;-31
2021/06/09 00:14:25;;;;;;;0.00;0.00;;;;;;;20.11;41.99;101759.91;5065998;28;20025;-31
2021/06/09 00:16:51;;;;;;;1.20;0.30;;;;;;;20.16;42.21;101766.94;5071951;28;20073;-32
2021/06/09 00:19:18;;;;;;;0.00;0.00;;;;;;;20.22;41.98;101763.34;5067614;28;20103;-33
2021/06/09 00:21:47;;;;;;;0.20;0.20;;;;;;;20.18;41.95;101762.50;5066496;28;20055;-32
2021/06/09 00:24:15;;;;;;;0.03;0.03;;;;;;;20.15;42.19;101759.88;5068552;28;20021;-32
2021/06/09 00:26:41;;;;;;;0.00;0.00;;;;;;;20.13;42.02;101755.47;5054557;28;20111;-31
2021/06/09 00:29:08;;;;;;;0.10;0.10;;;;;;;20.17;41.89;101749.25;5071197;28;20032;-31
2021/06/09 00:31:34;;;;;;;0.00;0.00;;;;;;;20.16;41.89;101760.75;5062873;28;20024;-31
2021/06/09 00:34:00;;;;;;;0.10;0.10;;;;;;;20.20;41.75;101755.41;5064958;28;20032;-31
2021/06/09 00:36:26;;;;;;;0.10;0.10;;;;;;;20.19;41.86;101750.13;5069358;28;20028;-31
2021/06/09 00:38:52;;;;;;;0.47;0.47;;;;;;;20.20;41.78;101746.56;5070174;28;20078;-34
2021/06/09 00:41:18;;;;;;;5.73;0.73;;;;;;;20.17;41.93;101747.47;5065380;28;20024;-31
2021/06/09 00:43:44;;;;;;;0.00;0.00;;;;;;;20.17;41.99;101750.13;5059854;28;21497;-33
2021/06/09 00:46:11;;;;;;;7.85;0.35;;;;;;;20.19;42.01;101739.50;5057509;28;20039;-31
2021/06/09 00:48:42;;;;;;;0.35;0.20;;;;;;;20.13;41.92;101729.84;5060647;28;20024;-32
2021/06/09 00:51:17;;;;;;;0.10;0.10;;;;;;;20.13;41.98;101739.53;5065573;28;20080;-31
2021/06/09 00:53:56;;;;;;;1.25;0.65;;;;;;;20.18;41.78;101729.81;5067752;28;20020;-31
2021/06/09 00:56:23;;;;;;;0.35;0.10;;;;;;;20.28;41.67;101736.78;5074065;28;20024;-31
2021/06/09 00:58:50;;;;;;;0.75;0.45;;;;;;;20.40;41.48;101731.34;5088877;28;20402;-31
2021/06/09 01:01:17;;;;;;;;;;;;;;;20.42;41.41;101729.59;5079407;28;20024;-32
2021/06/09 01:03:43;;;;;;;0.00;0.00;;;;;;;20.48;41.32;101723.38;5065429;28;19951;-32
2021/06/09 01:06:10;;;;;;;0.00;0.00;;;;;;;20.40;41.32;101719.84;5067922;28;20429;-33
2021/06/09 01:08:37;;;;;;;0.00;0.00;;;;;;;20.42;41.47;101718.09;5072138;28;20274;-31
2021/06/09 01:11:27;;;;;;;0.10;0.03;;;;;;;20.48;41.50;101722.50;5074037;28;20028;-32
2021/06/09 01:13:53;;;;;;;0.30;0.10;;;;;;;20.37;41.61;101719.91;5068585;28;20382;-31
2021/06/09 01:16:20;;;;;;;0.13;0.10;;;;;;;20.49;41.40;101729.56;5074126;28;20478;-33
2021/06/09 01:18:46;;;;;;;0.00;0.00;;;;;;;20.49;41.53;101724.25;5055668;28;20282;-31
2021/06/09 01:21:13;;;;;;;0.08;0.08;;;;;;;20.43;41.58;101736.66;5054152;28;20096;-33
2021/06/09 01:23:39;;;;;;;0.10;0.10;;;;;;;20.44;41.63;101732.22;5062328;28;20104;-31
2021/06/09 01:26:05;;;;;;;0.10;0.10;;;;;;;20.49;41.70;101732.19;5053543;28;20274;-32
2021/06/09 01:28:32;;;;;;;0.60;0.20;;;;;;;20.45;41.55;101726.00;5053836;28;20029;-32
2021/06/09 01:30:58;;;;;;;0.33;0.20;;;;;;;20.29;42.03;101724.41;5053899;28;20108;-31
2021/06/09 01:33:24;;;;;;;1.10;0.33;;;;;;;20.45;41.58;101726.88;5053849;28;20270;-32
2021/06/09 01:35:52;;;;;;;0.00;0.00;;;;;;;20.27;42.07;101734.13;5070792;28;20043;-32
2021/06/09 01:38:18;;;;;;;0.00;0.00;;;;;;;20.31;42.06;101733.22;5068779;28;21567;-31
2021/06/09 01:40:44;;;;;;;0.17;0.10;;;;;;;20.29;42.06;101737.66;5062421;28;20012;-32
2021/06/09 01:43:10;;;;;;;0.00;0.00;;;;;;;20.29;42.09;101732.34;5068743;28;20454;-32
2021/06/09 01:45:37;;;;;;;0.00;0.00;;;;;;;20.29;42.00;101732.34;5069576;28;20031;-31
2021/06/09 01:48:04;;;;;;;0.00;0.00;;;;;;;20.24;42.08;101729.75;5058402;28;20357;-31
2021/06/09 01:50:30;;;;;;;;;;;;;;;20.22;42.10;101734.16;5071100;28;20466;-31
2021/06/09 01:52:56;;;;;;;0.30;0.30;;;;;;;20.19;42.36;101732.44;5070083;28;20015;-31
2021/06/09 01:55:24;;;;;;;0.00;0.00;;;;;;;20.23;42.03;101735.94;5060684;28;20029;-31
2021/06/09 01:57:51;;;;;;;0.17;0.05;;;;;;;20.08;42.07;101721.03;5073960;28;20068;-31
2021/06/09 02:00:31;;;;;;;1.42;0.40;;;;;;;20.23;42.09;101738.59;5074004;28;20031;-32
2021/06/09 02:03:00;;;;;;;0.80;0.20;;;;;;;20.23;42.03;101737.72;5069584;28;20078;-31
2021/06/09 02:05:31;;;;;;;1.45;0.00;;;;;;;20.23;42.11;101743.91;5070743;28;20020;-31
2021/06/09 02:07:59;;;;;;;0.43;0.32;;;;;;;20.21;42.36;101746.56;5072202;28;20024;-33
2021/06/09 02:10:26;;;;;;;0.50;0.50;;;;;;;20.18;42.13;101746.59;5078176;28;20028;-31
2021/06/09 02:12:54;;;;;;;;;;;;;;;20.16;42.07;101742.19;5059963;28;20045;-31
2021/06/09 02:15:21;;;;;;;0.25;0.17;;;;;;;20.13;41.61;101756.38;5070388;28;20413;-33
2021/06/09 02:17:59;;;;;;;1.65;0.20;;;;;;;20.14;41.84;101758.13;5068320;28;20469;-31
2021/06/09 02:20:27;;;;;;;0.45;0.05;;;;;;;20.16;41.84;101751.00;5060941;28;20016;-31
2021/06/09 02:22:54;;;;;;;2.63;0.30;;;;;;;20.18;41.84;101753.69;5072516;28;20057;-31
2021/06/09 02:25:20;;;;;;;0.20;0.10;;;;;;;20.19;41.94;101755.44;5088055;28;20398;-31
2021/06/09 02:27:46;;;;;;;0.20;0.20;;;;;;;20.17;41.69;101750.13;5057459;28;20254;-32
2021/06/09 02:30:13;;;;;;;0.00;0.00;;;;;;;20.15;41.86;101759.00;5055909;28;20048;-35
2021/06/09 02:32:42;;;;;;;1.67;0.32;;;;;;;20.11;41.96;101754.59;5071166;28;20024;-32
2021/06/09 02:35:13;;;;;;;0.38;0.35;;;;;;;20.10;41.75;101763.47;5079111;28;20077;-31
2021/06/09 02:37:40;;;;;;;0.10;0.10;;;;;;;20.09;41.76;101754.63;5057220;28;20033;-31
2021/06/09 02:40:08;;;;;;;0.08;0.08;;;;;;;20.09;41.75;101756.41;5061246;28;20048;-33
2021/06/09 02:42:36;;;;;;;0.00;0.00;;;;;;;20.10;41.55;101758.16;5058106;28;20392;-32
2021/06/09 02:45:06;;;;;;;0.52;0.22;;;;;;;20.16;41.38;101756.31;5065006;28;20033;-33
2021/06/09 02:47:33;;;;;;;0.00;0.00;;;;;;;20.12;41.73;101754.56;5068611;28;20028;-34
2021/06/09 02:49:59;;;;;;;;;;;;;;;20.12;41.75;101765.19;5062266;28;20036;-31
2021/06/09 02:52:29;;;;;;;0.00;0.00;;;;;;;20.00;41.58;101749.38;5062112;28;19973;-32
2021/06/09 02:55:17;;;;;;;0.00;0.00;;;;;;;20.05;41.88;101771.44;5047412;28;20115;-32
2021/06/09 02:58:10;;;;;;;0.00;0.00;;;;;;;20.08;41.90;101776.75;5068634;28;20032;-33
2021/06/09 03:00:56;;;;;;;0.10;0.10;;;;;;;20.12;41.52;101773.16;5064669;28;20033;-31
2021/06/09 03:03:38;;;;;;;0.00;0.00;;;;;;;20.05;41.02;101782.06;5056150;28;20108;-31
2021/06/09 03:06:28;;;;;;;0.00;0.00;;;;;;;20.10;41.65;101782.03;5063191;28;20024;-31
2021/06/09 03:09:01;;;;;;;0.05;0.00;;;;;;;20.08;41.82;101776.75;5064262;28;20033;-31
2021/06/09 03:11:58;;;;;;;1.55;0.47;;;;;;;19.99;41.58;101757.31;5059833;28;20028;-32
2021/06/09 03:17:21;;;;;;;0.00;0.00;;;;;;;19.98;41.86;101780.31;5062300;28;20086;-31
2021/06/09 03:20:20;;;;;;;0.10;0.10;;;;;;;19.94;41.81;101781.25;5078187;28;20185;-32
2021/06/09 03:22:55;;;;;;;0.20;0.10;;;;;;;19.91;41.73;101773.31;5062664;28;20109;-32
2021/06/09 03:25:24;;;;;;;0.00;0.00;;;;;;;19.92;41.77;101786.56;5075845;28;20055;-32
2021/06/09 03:28:21;;;;;;;0.80;0.20;;;;;;;19.96;41.68;101790.06;5042224;28;20044;-34
2021/06/09 03:30:59;;;;;;;0.10;0.05;;;;;;;19.98;41.67;101795.34;5055747;28;20130;-32
2021/06/09 03:33:29;;;;;;;0.93;0.85;;;;;;;19.97;41.58;101799.78;5087394;28;20114;-34
2021/06/09 03:35:57;;;;;;;0.70;0.10;;;;;;;19.89;41.67;101780.38;5073870;28;20489;-31
2021/06/09 03:38:34;;;;;;;0.55;0.43;;;;;;;19.92;41.77;101797.16;5062763;28;20060;-31
2021/06/09 03:41:08;;;;;;;1.35;0.32;;;;;;;19.90;41.52;101796.31;5060013;28;20020;-33
2021/06/09 03:43:36;;;;;;;0.03;0.03;;;;;;;19.93;41.36;101800.69;5074279;28;20519;-34
2021/06/09 03:46:02;;;;;;;0.20;0.10;;;;;;;19.88;41.53;101799.84;5069583;28;20037;-31
2021/06/09 03:48:29;;;;;;;0.85;0.13;;;;;;;19.85;41.28;101814.00;5059183;28;20040;-33
2021/06/09 03:50:58;;;;;;;0.32;0.17;;;;;;;19.94;41.90;101800.69;5069400;28;20450;-32
2021/06/09 03:53:24;;;;;;;1.00;0.30;;;;;;;19.93;41.83;101806.00;5079194;28;20416;-31
2021/06/09 03:55:50;;;;;;;0.38;0.10;;;;;;;19.79;41.64;101781.31;5084992;28;20370;-34
2021/06/09 03:58:17;;;;;;;0.28;0.25;;;;;;;19.81;41.98;101782.22;5051424;28;20081;-32
2021/06/09 04:00:45;;;;;;;1.55;0.43;;;;;;;19.87;41.58;101804.25;5073436;28;20070;-32
2021/06/09 04:03:12;;;;;;;0.75;0.28;;;;;;;19.88;41.67;101813.97;5072138;28;20032;-32
2021/06/09 04:05:39;;;;;;;0.15;0.15;;;;;;;19.87;41.86;101806.91;5072674;28;20124;-33
2021/06/09 04:08:06;;;;;;;0.10;0.10;;;;;;;19.82;41.63;101818.44;5065672;28;20033;-32
2021/06/09 04:10:32;;;;;;;0.13;0.13;;;;;;;19.81;41.67;101814.91;5057993;28;20082;-32
2021/06/09 04:12:58;;;;;;;0.77;0.20;;;;;;;19.73;41.70;101805.22;5061339;28;20286;-32
2021/06/09 04:15:24;;;;;;;5.50;1.30;;;;;;;19.70;41.78;101798.16;5061134;28;20024;-32
2021/06/09 04:17:50;;;;;;;1.55;0.40;;;;;;;19.85;41.80;101810.47;5063877;28;20032;-32
2021/06/09 04:20:24;;;;;;;0.20;0.20;;;;;;;19.85;41.79;101829.91;5045727;28;20342;-32
2021/06/09 04:22:50;;;;;;;1.55;0.35;;;;;;;19.81;42.01;101828.16;5061629;28;20335;-33
2021/06/09 04:25:16;;;;;;;0.00;0.00;;;;;;;19.78;41.82;101836.13;5063875;28;20025;-32
2021/06/09 04:27:44;;;;;;;0.10;0.10;;;;;;;19.67;42.01;101822.06;5055126;28;20060;-31
2021/06/09 04:30:10;;;;;;;0.55;0.13;;;;;;;19.72;42.16;101837.94;5062231;28;20106;-31
2021/06/09 04:32:59;;;;;;;0.03;0.03;;;;;;;19.78;42.12;101832.59;5053242;28;20031;-32
2021/06/09 04:35:44;;;;;;;;;;;;;;;19.80;42.14;101833.50;5064496;28;20074;-32
2021/06/09 04:38:18;;;;;;;0.35;0.35;;;;;;;19.81;42.06;101835.25;5063098;28;20330;-31
2021/06/09 04:40:44;;;;;;;0.13;0.13;;;;;;;19.80;42.05;101836.16;5056931;28;20457;-31
2021/06/09 04:43:10;;;;;;;0.37;0.23;;;;;;;19.75;42.35;101843.22;5064299;28;20016;-31
2021/06/09 04:45:37;;;;;;;0.10;0.05;;;;;;;19.73;42.21;101840.56;5066757;28;20461;-31
2021/06/09 04:48:12;;;;;;;0.13;0.13;;;;;;;19.63;42.45;101831.78;5064917;28;20043;-31
2021/06/09 04:50:38;;;;;;;0.10;0.10;;;;;;;19.66;42.51;101853.00;5066817;28;20467;-32
2021/06/09 04:53:11;;;;;;;0.00;0.00;;;;;;;19.67;42.47;101849.44;5067549;28;20194;-31
2021/06/09 04:55:44;;;;;;;0.00;0.00;;;;;;;19.71;42.36;101842.38;5067269;28;20363;-33
2021/06/09 04:58:11;;;;;;;4.75;1.10;;;;;;;19.73;42.48;101851.19;5057359;28;20043;-34
2021/06/09 05:00:38;;;;;;;26.15;0.98;;;;;;;19.74;42.33;101858.25;5063037;28;20051;-33
2021/06/09 05:03:04;;;;;;;0.00;0.00;;;;;;;19.71;42.46;101852.97;5066571;28;20040;-31
2021/06/09 05:05:30;;;;;;;0.10;0.10;;;;;;;19.69;42.56;101850.31;5065192;28;20394;-32
2021/06/09 05:07:57;;;;;;;3.00;1.40;;;;;;;19.67;42.65;101865.34;5052379;28;20024;-31
2021/06/09 05:10:23;;;;;;;0.57;0.22;;;;;;;19.65;42.50;101867.13;5072792;28;20028;-32
2021/06/09 05:12:52;;;;;;;0.20;0.10;;;;;;;19.64;42.58;101873.31;5072021;28;20478;-31
2021/06/09 05:15:18;;;;;;;0.28;0.20;;;;;;;19.43;42.66;101828.31;5071425;28;20354;-32
2021/06/09 05:17:46;;;;;;;0.00;0.00;;;;;;;19.73;42.60;101872.38;5073375;28;20466;-31
2021/06/09 05:20:25;;;;;;;2.05;0.40;;;;;;;19.63;42.39;101862.72;5056555;28;20029;-31
2021/06/09 05:23:05;;;;;;;0.00;0.00;;;;;;;19.76;42.50;101875.03;5062851;28;20040;-32
2021/06/09 05:25:31;;;;;;;0.00;0.00;;;;;;;19.62;42.59;101866.25;5082792;28;20028;-31
2021/06/09 05:27:57;;;;;;;0.32;0.17;;;;;;;19.63;42.74;101879.50;5066151;28;20025;-33
2021/06/09 05:30:23;;;;;;;5.28;0.73;;;;;;;19.64;42.73;101886.56;5063685;28;20060;-31
2021/06/09 05:32:51;;;;;;;0.10;0.03;;;;;;;19.57;42.71;101878.63;5064195;28;20060;-31
2021/06/09 05:35:17;;;;;;;1.55;0.47;;;;;;;19.60;42.87;101884.78;5052503;28;20489;-33
2021/06/09 05:37:44;;;;;;;0.10;0.10;;;;;;;19.59;42.72;101883.00;5056577;28;20024;-32
2021/06/09 05:40:11;;;;;;;1.98;0.55;;;;;;;19.60;42.93;101883.91;5048478;28;20078;-31
2021/06/09 05:42:37;;;;;;;3.60;0.20;;;;;;;19.63;42.83;101884.78;5054957;28;20474;-31
2021/06/09 05:45:05;;;;;;;0.45;0.30;;;;;;;19.66;42.81;101887.44;5072294;28;20086;-34
2021/06/09 05:47:31;;;;;;;0.00;0.00;;;;;;;19.64;42.68;101885.69;5066120;28;20024;-34
2021/06/09 05:50:17;;;;;;;2.03;0.52;;;;;;;19.59;43.00;101885.66;5062461;28;20052;-32
2021/06/09 05:52:44;;;;;;;0.28;0.20;;;;;;;19.58;42.91;101881.25;5060294;28;20047;-33
2021/06/09 05:55:23;;;;;;;0.75;0.75;;;;;;;19.60;43.00;101881.25;5067343;28;20122;-32
2021/06/09 05:57:50;;;;;;;0.05;0.05;;;;;;;19.49;43.12;101873.31;5067174;28;20115;-32
2021/06/09 06:00:18;;;;;;;0.03;0.03;;;;;;;19.55;43.03;101869.75;5058108;28;20021;-31
2021/06/09 06:02:45;;;;;;;0.52;0.25;;;;;;;19.53;43.23;101875.09;5063476;28;20378;-31
2021/06/09 06:05:11;;;;;;;;;;;;;;;19.55;42.98;101870.66;5061351;28;20029;-31
2021/06/09 06:07:37;;;;;;;0.17;0.10;;;;;;;19.59;42.91;101869.75;5069096;28;19918;-32
2021/06/09 06:10:05;;;;;;;0.00;0.00;;;;;;;19.54;43.16;101868.88;5070718;28;20021;-31
2021/06/09 06:12:31;;;;;;;1.65;0.22;;;;;;;19.53;43.16;101867.13;5068434;28;20041;-33
2021/06/09 06:14:57;;;;;;;0.00;0.00;;;;;;;19.39;43.13;101845.09;5053191;28;20505;-31
2021/06/09 06:17:23;;;;;;;0.15;0.00;;;;;;;19.45;43.31;101848.59;5048783;28;20351;-31
2021/06/09 06:19:50;;;;;;;0.10;0.10;;;;;;;19.36;43.47;101832.72;5055181;28;20033;-32
2021/06/09 06:22:16;;;;;;;;;;;;;;;19.52;43.16;101851.25;5052974;28;20029;-33
2021/06/09 06:24:47;;;;;;;0.20;0.20;;;;;;;19.50;43.18;101845.06;5069690;28;19959;-33
2021/06/09 06:27:14;;;;;;;0.20;0.17;;;;;;;19.52;43.12;101848.59;5056275;28;20016;-32
2021/06/09 06:29:41;;;;;;;0.00;0.00;;;;;;;19.52;43.35;101853.91;5071227;28;20036;-31
2021/06/09 06:32:09;;;;;;;4.78;0.98;;;;;;;19.46;43.21;101860.06;5058929;28;20467;-33
2021/06/09 06:34:37;;;;;;;0.00;0.00;;;;;;;19.37;43.63;101854.78;5066632;28;20463;-31
2021/06/09 06:37:04;;;;;;;0.30;0.20;;;;;;;19.41;43.59;101849.47;5060192;28;20097;-32
2021/06/09 06:39:30;;;;;;;0.08;0.08;;;;;;;19.51;43.27;101858.28;5056207;28;20340;-35
2021/06/09 06:41:56;;;;;;;0.03;0.03;;;;;;;19.29;43.47;101835.41;5046879;28;20028;-32
2021/06/09 06:44:22;;;;;;;0.83;0.37;;;;;;;19.38;43.34;101840.69;5069146;28;20040;-31
2021/06/09 06:46:51;;;;;;;0.10;0.10;;;;;;;19.43;43.42;101847.72;5058920;28;20486;-31
2021/06/09 06:49:18;;;;;;;0.10;0.10;;;;;;;19.45;43.22;101853.00;5055688;28;20028;-31
2021/06/09 06:51:51;;;;;;;0.00;0.00;;;;;;;19.47;43.37;101850.38;5072713;28;20336;-31
2021/06/09 06:54:19;;;;;;;0.10;0.05;;;;;;;19.44;43.60;101854.78;5047405;28;20362;-31
2021/06/09 06:56:47;;;;;;;2.35;0.30;;;;;;;19.34;43.63;101855.72;5060978;28;20029;-32
2021/06/09 06:59:13;;;;;;;0.00;0.00;;;;;;;19.30;43.80;101850.41;5070355;28;20028;-33
2021/06/09 07:01:39;;;;;;;0.00;0.00;;;;;;;19.24;43.89;101840.72;5069626;28;20343;-31
2021/06/09 07:04:06;;;;;;;0.22;0.20;;;;;;;19.33;43.64;101838.06;5061750;28;20032;-31
2021/06/09 07:06:35;;;;;;;0.60;0.10;;;;;;;19.37;43.54;101850.41;5067436;28;20073;-31
2021/06/09 07:09:01;;;;;;;0.00;0.00;;;;;;;19.31;43.58;101836.28;5057934;28;20021;-32
2021/06/09 07:11:28;;;;;;;3.00;0.25;;;;;;;19.38;43.55;101846.00;5061896;28;20589;-31
2021/06/09 07:13:56;;;;;;;0.27;0.27;;;;;;;19.31;43.58;101836.28;5053567;28;20035;-32
2021/06/09 07:16:27;;;;;;;4.65;0.73;;;;;;;19.39;43.53;101839.78;5057573;28;20060;-32
2021/06/09 07:18:53;;;;;;;0.00;0.00;;;;;;;19.33;43.87;101842.47;5056024;28;20028;-31
2021/06/09 07:21:22;;;;;;;0.03;0.03;;;;;;;19.23;43.91;101843.34;5063796;28;20029;-32
2021/06/09 07:23:49;;;;;;;0.15;0.15;;;;;;;19.32;44.00;101836.28;5064293;28;20474;-31
2021/06/09 07:26:15;;;;;;;0.32;0.20;;;;;;;19.27;43.51;101832.75;5057955;28;20029;-31
2021/06/09 07:28:49;;;;;;;0.10;0.10;;;;;;;19.28;43.87;101829.25;5065961;28;20343;-33
2021/06/09 07:31:16;;;;;;;0.00;0.00;;;;;;;19.24;43.44;101805.41;5069800;28;20035;-31
2021/06/09 07:33:44;;;;;;;;;;;;;;;19.33;43.81;101821.28;5066422;28;20150;-31
2021/06/09 07:36:10;;;;;;;0.10;0.10;;;;;;;19.32;43.57;101822.13;5055765;28;19999;-33
2021/06/09 07:38:40;;;;;;;0.00;0.00;;;;;;;19.30;43.81;101813.31;5056558;28;20036;-31
2021/06/09 07:41:06;;;;;;;1.10;0.13;;;;;;;19.21;44.04;101811.59;5054275;28;20086;-31
2021/06/09 07:43:38;;;;;;;0.00;0.00;;;;;;;19.17;44.13;101812.47;5055579;28;20029;-31
2021/06/09 07:46:05;;;;;;;0.13;0.10;;;;;;;19.15;43.93;101815.13;5046254;28;20379;-31
2021/06/09 07:48:31;;;;;;;1.92;0.22;;;;;;;19.16;44.05;101816.88;5043445;28;20354;-32
2021/06/09 07:51:11;;;;;;;0.10;0.10;;;;;;;19.16;44.20;101816.88;5067506;28;20033;-33
2021/06/09 07:53:38;;;;;;;0.00;0.00;;;;;;;19.28;43.82;101808.03;5054221;28;20048;-31
2021/06/09 07:56:05;;;;;;;0.00;0.00;;;;;;;19.28;43.88;101809.81;5063506;28;20074;-31
2021/06/09 07:58:32;;;;;;;0.08;0.08;;;;;;;19.28;43.79;101812.47;5055286;28;20029;-32
2021/06/09 08:00:59;;;;;;;0.00;0.00;;;;;;;19.31;43.75;101815.09;5073074;28;20024;-31
2021/06/09 08:03:26;;;;;;;;;;;;;;;19.18;43.87;101806.31;5070363;28;20116;-32
2021/06/09 08:06:01;;;;;;;0.00;0.00;;;;;;;19.11;43.83;101810.72;5054618;28;19913;-33
2021/06/09 08:08:27;;;;;;;0.08;0.08;;;;;;;19.10;44.21;101813.38;5075183;28;20067;-31
2021/06/09 08:10:53;;;;;;;1.20;0.75;;;;;;;19.15;44.12;101812.50;5055165;28;20461;-31
2021/06/09 08:13:20;;;;;;;0.00;0.00;;;;;;;19.10;44.27;101808.97;5054133;28;20110;-34
2021/06/09 08:15:46;;;;;;;0.05;0.05;;;;;;;19.16;44.04;101805.41;5054494;28;20032;-32
2021/06/09 08:18:12;;;;;;;0.00;0.00;;;;;;;19.23;43.95;101811.56;5058038;28;20046;-31
2021/06/09 08:21:06;;;;;;;0.03;0.03;;;;;;;19.22;43.92;101805.38;5060727;28;20656;-32
2021/06/09 08:23:32;;;;;;;0.00;0.00;;;;;;;19.22;43.71;101805.38;5046446;28;20140;-31
2021/06/09 08:25:59;;;;;;;0.00;0.00;;;;;;;19.23;43.78;101806.25;5063754;28;20042;-32
2021/06/09 08:28:25;;;;;;;0.30;0.20;;;;;;;19.12;43.96;101807.19;5064377;28;20118;-35
2021/06/09 08:30:51;;;;;;;2.80;1.20;;;;;;;19.04;44.28;101805.47;5054196;28;20351;-31
2021/06/09 08:33:17;;;;;;;0.10;0.10;;;;;;;19.04;44.24;101802.81;5058160;28;20123;-32
2021/06/09 08:35:43;;;;;;;0.00;0.00;;;;;;;18.99;44.39;101792.25;5057762;28;20040;-32
2021/06/09 08:38:10;;;;;;;0.10;0.10;;;;;;;19.01;44.24;101802.81;5053887;28;20021;-33
2021/06/09 08:40:36;;;;;;;0.00;0.00;;;;;;;19.12;44.06;101804.53;5057351;28;20013;-34
2021/06/09 08:43:02;;;;;;;1.15;0.47;;;;;;;19.17;44.01;101800.09;5064124;28;20028;-31
2021/06/09 08:45:29;;;;;;;23.60;0.20;;;;;;;19.13;43.88;101789.53;5063328;28;20024;-32
2021/06/09 08:47:56;;;;;;;0.25;0.10;;;;;;;19.17;43.92;101797.47;5076472;28;20031;-31
2021/06/09 08:50:22;;;;;;;0.00;0.00;;;;;;;19.12;43.90;101793.06;5060994;28;20036;-31
2021/06/09 08:52:49;;;;;;;0.00;0.00;;;;;;;19.05;44.12;101794.88;5065186;28;20028;-31
2021/06/09 08:55:16;;;;;;;0.20;0.13;;;;;;;19.03;44.30;101790.44;5060947;28;20040;-32
2021/06/09 08:57:42;;;;;;;0.10;0.10;;;;;;;19.09;44.10;101793.97;5062995;28;20044;-32
2021/06/09 09:00:09;;;;;;;0.00;0.00;;;;;;;18.98;44.39;101792.22;5066697;28;20035;-31
2021/06/09 09:02:36;;;;;;;0.00;0.00;;;;;;;18.95;44.45;101797.53;5053690;28;20024;-31
2021/06/09 09:05:02;;;;;;;0.10;0.10;;;;;;;18.98;44.14;101774.56;5055701;28;20521;-31
2021/06/09 09:07:28;;;;;;;0.10;0.10;;;;;;;19.12;43.84;101793.06;5064598;28;20025;-31
2021/06/09 09:09:58;;;;;;;0.00;0.00;;;;;;;19.12;43.77;101788.66;5066147;28;20032;-32
2021/06/09 09:12:24;;;;;;;0.00;0.00;;;;;;;19.08;43.97;101788.66;5057048;28;20467;-32
2021/06/09 09:14:51;;;;;;;0.10;0.10;;;;;;;19.08;43.93;101789.53;5054485;28;20036;-31
2021/06/09 09:17:17;;;;;;;2.25;0.08;;;;;;;18.98;44.14;101793.09;5053745;28;20025;-31
2021/06/09 09:19:44;;;;;;;0.25;0.20;;;;;;;18.97;44.23;101786.03;5054431;28;20040;-32
2021/06/09 09:22:31;;;;;;;0.00;0.00;;;;;;;18.90;44.22;101786.97;5054873;28;20450;-31
2021/06/09 09:24:57;;;;;;;0.20;0.20;;;;;;;18.87;44.20;101782.53;5054007;28;20021;-31
2021/06/09 09:27:31;;;;;;;0.15;0.15;;;;;;;18.89;44.20;101788.69;5058098;28;20035;-33
2021/06/09 09:30:06;;;;;;;0.00;0.00;;;;;;;18.97;44.04;101788.69;5056440;28;20020;-31
2021/06/09 09:32:33;;;;;;;0.00;0.00;;;;;;;19.06;43.80;101790.44;5054601;28;20056;-31
2021/06/09 09:35:09;;;;;;;0.13;0.00;;;;;;;18.98;43.81;101782.50;5066209;28;20036;-33
2021/06/09 09:37:35;;;;;;;0.00;0.00;;;;;;;19.04;43.78;101781.63;5054315;28;20111;-31
2021/06/09 09:40:17;;;;;;;0.10;0.10;;;;;;;18.97;43.86;101779.88;5053563;28;20351;-32
2021/06/09 09:42:44;;;;;;;0.77;0.10;;;;;;;18.92;43.78;101777.22;5053101;28;20033;-32
2021/06/09 09:45:24;;;;;;;0.00;0.00;;;;;;;18.87;44.10;101779.88;5053108;28;20041;-33
2021/06/09 09:48:11;;;;;;;0.00;0.00;;;;;;;18.84;43.96;101773.72;5072680;28;20443;-31
2021/06/09 09:50:46;;;;;;;0.20;0.10;;;;;;;18.82;44.16;101778.13;5054098;28;20025;-32
2021/06/09 09:53:22;;;;;;;0.00;0.00;;;;;;;18.86;44.09;101771.97;5055695;28;20182;-33
2021/06/09 09:56:00;;;;;;;0.03;0.00;;;;;;;19.03;43.52;101778.06;5054459;28;20032;-31
2021/06/09 09:58:27;;;;;;;0.00;0.00;;;;;;;18.99;43.68;101783.38;5059113;28;20437;-31
2021/06/09 10:01:17;;;;;;;0.17;0.08;;;;;;;18.93;43.59;101771.91;5061833;28;20516;-34
2021/06/09 10:03:45;;;;;;;0.10;0.10;;;;;;;18.97;43.69;101777.22;5056869;28;20336;-32
2021/06/09 10:06:23;;;;;;;0.10;0.10;;;;;;;18.91;43.70;101783.41;5059526;28;20025;-32
2021/06/09 10:08:49;;;;;;;0.10;0.10;;;;;;;18.87;43.82;101774.59;5067577;28;20024;-31
2021/06/09 10:11:16;;;;;;;0.00;0.00;;;;;;;18.83;43.73;101777.25;5060594;28;20032;-32
2021/06/09 10:13:42;;;;;;;0.55;0.13;;;;;;;18.86;43.59;101782.56;5059637;28;20033;-32
2021/06/09 10:16:41;;;;;;;0.10;0.10;;;;;;;18.73;43.88;101786.09;5056883;28;20064;-31
2021/06/09 10:19:11;;;;;;;0.90;0.15;;;;;;;18.80;43.67;101786.09;5049355;28;20040;-32
2021/06/09 10:21:56;;;;;;;0.00;0.00;;;;;;;18.92;43.52;101777.22;5057342;28;20017;-31
2021/06/09 10:24:23;;;;;;;1.08;0.15;;;;;;;18.91;43.60;101778.13;5063001;28;20032;-31
2021/06/09 10:26:57;;;;;;;6.82;0.45;;;;;;;18.76;43.71;101763.16;5056367;28;20508;-31
2021/06/09 10:29:24;;;;;;;0.00;0.00;;;;;;;18.80;43.64;101778.16;5063747;28;20134;-33
2021/06/09 10:31:54;;;;;;;3.92;0.77;;;;;;;18.86;43.47;101778.13;5062259;28;20025;-33
2021/06/09 10:34:29;;;;;;;0.00;0.00;;;;;;;18.86;43.66;101772.84;5068178;28;20387;-31
2021/06/09 10:36:56;;;;;;;2.63;0.17;;;;;;;18.79;43.74;101776.38;5074398;28;20086;-31
2021/06/09 10:39:23;;;;;;;0.25;0.25;;;;;;;18.71;43.88;101777.28;5067807;28;20033;-32
2021/06/09 10:41:57;;;;;;;0.08;0.08;;;;;;;18.64;43.78;101774.59;5055878;28;20147;-32
2021/06/09 10:44:26;;;;;;;0.38;0.25;;;;;;;18.63;43.73;101767.53;5056574;28;20025;-33
2021/06/09 10:46:55;;;;;;;0.52;0.30;;;;;;;18.86;43.30;101769.31;5055110;28;20020;-33
2021/06/09 10:49:22;;;;;;;0.22;0.10;;;;;;;18.88;43.36;101776.34;5057316;28;20079;-32
2021/06/09 10:51:51;;;;;;;0.10;0.10;;;;;;;18.86;43.26;101764.00;5062225;28;20126;-32
2021/06/09 10:54:17;;;;;;;0.10;0.10;;;;;;;18.79;43.54;101767.53;5056078;28;20098;-32
2021/06/09 10:56:47;;;;;;;4.85;0.75;;;;;;;18.70;43.69;101763.13;5058257;28;20411;-32
2021/06/09 10:59:18;;;;;;;0.75;0.32;;;;;;;18.77;43.82;101766.69;5061467;28;20072;-31
2021/06/09 11:01:44;;;;;;;0.20;0.10;;;;;;;18.75;43.56;101757.84;5061559;28;20440;-31
2021/06/09 11:04:11;;;;;;;0.00;0.00;;;;;;;18.71;43.63;101759.63;5056031;28;20032;-31
2021/06/09 11:06:42;;;;;;;0.08;0.08;;;;;;;18.74;43.63;101758.72;5057932;28;20040;-31
2021/06/09 11:09:15;;;;;;;0.00;0.00;;;;;;;18.66;43.69;101758.72;5055994;28;20021;-34
2021/06/09 11:11:41;;;;;;;1.38;0.20;;;;;;;18.68;43.69;101763.16;5055584;28;20032;-31
2021/06/09 11:14:29;;;;;;;0.10;0.10;;;;;;;18.80;43.32;101756.06;5056255;28;20040;-31
2021/06/09 11:16:55;;;;;;;1.65;0.22;;;;;;;18.76;43.33;101760.50;5056044;28;20278;-31
2021/06/09 11:19:42;;;;;;;0.30;0.27;;;;;;;18.70;43.38;101760.50;5055414;28;20029;-32
2021/06/09 11:22:18;;;;;;;0.15;0.15;;;;;;;18.60;43.51;101761.34;5055315;28;20606;-31
2021/06/09 11:25:06;;;;;;;0.00;0.00;;;;;;;18.57;43.76;101758.75;5057611;28;20021;-32
2021/06/09 11:27:32;;;;;;;0.00;0.00;;;;;;;18.64;43.43;101758.72;5066316;28;20020;-32
2021/06/09 11:29:58;;;;;;;0.20;0.10;;;;;;;18.54;43.85;101753.44;5059983;28;20447;-32
2021/06/09 11:32:24;;;;;;;0.00;0.00;;;;;;;18.47;44.04;101754.31;5056580;28;20079;-32
2021/06/09 11:34:58;;;;;;;0.03;0.03;;;;;;;18.54;43.83;101753.44;5055752;28;20359;-31
2021/06/09 11:37:24;;;;;;;0.75;0.10;;;;;;;18.56;43.86;101747.28;5066831;28;20090;-31
2021/06/09 11:40:00;;;;;;;0.10;0.10;;;;;;;18.65;43.60;101756.94;5059307;28;20074;-31
2021/06/09 11:42:26;;;;;;;0.15;0.15;;;;;;;18.62;43.56;101757.84;5061316;28;20059;-31